Portada
METAR-TAF:

METAR-TAF

Aeroports :

Sedalia, Missouri, Estats Units d'Amèrica

latitud: 38-42-44N, longitud: 093-10-28W, altitud: 277 m

Observació

L'informe es va fer fa 1 hora i 2 minuts, a les 12:53 UTC
Vent 7 kt del Sud/Sud-Oest
Temperatura 2°C
Humitat 93%
Pressió 1012 hPa
Visibilitat: 16.1 km
Cel clar

METAR: KDMO 181253Z AUTO 21007KT 10SM CLR 02/01 A2987 RMK AO2 SLP120 T00170006

Hora: 07:55 (13:55 UTC)


TAF: manca

Observacions i pronòstics meteorològics de més de 4000 aeroports (METAR i TAF).

Les estacions disponibles són els punts grocs i vermells al mapa.

Posi el ratolí al punt desitjat per veure el nom de l'estació.

Feu clic per veure les observacions i els pronòstics meteorològics.

Per canviar el mapa: feu clic els botons verds amb una creu de color negre per apropar; al botó verd amb un guió per allunyar la imatge; o en les fletxes verdes per a mapes adjacents.


METAR-TAF: